Ashland, OR

6:58 PM PDT on May 06, 2015 (GMT -0700)
Old Highway 99 | | Change Station
CLOSE
Current Station
Personal Weather Station
Location: Ashland, OR
Elevation: 2320 ft
Nearby Weather Stations
Active Advisory: Frost Advisory

Elev 2320 ft 42.12 °N, 122.61 °W | Updated 3 seconds ago

Partly Cloudy
Partly Cloudy
53.9 °F
Feels Like 53.9 °F
N
9.0
Wind Variable Wind from NW
Gusts 12.0 mph

Today
High -- | Low -- °F
--% Chance of Precip.
Yesterday
High -- | Low -- °F
Precip. -- in
5:59 AM 8:15 PM
Waning Gibbous, 91% visible
Pressure 29.96 in
Visibility 10.0 miles
Clouds Scattered Clouds 7500 ft
Dew Point 31 °F
Humidity 42%
Rainfall 0.00 in
Snow Depth Not available.
UV 1 out of 12
Pollen 7.00 out of 12
Air Quality Not available.
Flu Activity Regional
METAR KMFR 070153Z 35012KT 10SM SCT075 16/M01 A2996 RMK AO2 SLP146 T01611011

More Conditions Fewer Conditions

Pressure 29.96 in
Visibility 10.0 miles
Clouds Scattered Clouds 7500 ft
Dew Point 31 °F
Humidity 42%
Rainfall 0.00 in
Snow Depth Not available.
UV 1 out of 12
Pollen 7.00 out of 12
Air Quality Not available.
Flu Activity Regional
METAR KMFR 070153Z 35012KT 10SM SCT075 16/M01 A2996 RMK AO2 SLP146 T01611011

More Conditions Fewer Conditions

10-Day Weather Forecast

Almanac

Astronomy

May. 06, 2015 Rise Set
Actual Time
Civil Twilight
Nautical Twilight
Astronomical Twilight
Moon
Length of Visible Light
Length of Day
Tomorrow will be .
, % of the Moon is Illuminated

Today's Extremes

State Highs State Lows

Community

WunderPhotos

Upload Photos

1,819,070 photos uploaded!

WunderBlogs® & News

Nearby

Air Quality

  Air Quality AQ Index Pollutant
Not available.

Snow Depth

Station Depth Elevation

Earthquake Activity

City Distance Mag. Time & Date
Minimum magnitude displayed is 2.5.

Coastal Water Temperatures

Place Temperature

Stations

Nearby Weather Stations

Station Location Temp. Windchill Dew Point Humidity Wind Precip. Elev Updated Type
                   
Frost Advisory
Statement as of 1:30 PM PDT on May 06, 2015

... Frost advisory in effect from 3 am to 8 am PDT Thursday...

The National Weather Service in Medford has issued a frost
advisory... which is in effect from 3 am to 8 am PDT Thursday.

* Temperature: 33 to 36.

* Temperature inversion: very weak or no inversions are expected.

* Locations include: Ruch... Jacksonville... Shady
Cove... Prospect... and hills surrounding Rogue Valley.

* Impacts: sensitive vegetation could be damaged or killed from
frost conditions.

* View the hazard area in detail at
http://weather.Gov/Medford/hazard

Precautionary/preparedness actions...

Protect sensitive vegetation tonight to prevent plant damage.